sensor_id;sensor_type;location;lat;lon;timestamp;pressure;altitude;pressure_sealevel;temperature;humidity
13968;BME280;39536;52.198;9.920;2023-02-15T00:00:44;102121.31;;;4.10;100.00
13968;BME280;39536;52.198;9.920;2023-02-15T00:03:12;102114.53;;;4.15;100.00
13968;BME280;39536;52.198;9.920;2023-02-15T00:05:39;102118.09;;;4.21;100.00
13968;BME280;39536;52.198;9.920;2023-02-15T00:08:05;102112.94;;;4.22;100.00
13968;BME280;39536;52.198;9.920;2023-02-15T00:10:32;102117.28;;;4.25;100.00
13968;BME280;39536;52.198;9.920;2023-02-15T00:12:59;102117.19;;;4.20;100.00
13968;BME280;39536;52.198;9.920;2023-02-15T00:15:26;102110.41;;;4.25;100.00
13968;BME280;39536;52.198;9.920;2023-02-15T00:17:53;102115.56;;;4.25;100.00
13968;BME280;39536;52.198;9.920;2023-02-15T00:20:21;102115.59;;;4.27;100.00
13968;BME280;39536;52.198;9.920;2023-02-15T00:22:48;102110.50;;;4.30;100.00
13968;BME280;39536;52.198;9.920;2023-02-15T00:25:14;102109.56;;;4.26;100.00
13968;BME280;39536;52.198;9.920;2023-02-15T00:27:41;102111.28;;;4.26;100.00
13968;BME280;39536;52.198;9.920;2023-02-15T00:30:08;102110.47;;;4.28;100.00
13968;BME280;39536;52.198;9.920;2023-02-15T00:32:35;102107.81;;;4.24;100.00
13968;BME280;39536;52.198;9.920;2023-02-15T00:35:02;102101.88;;;4.29;100.00
13968;BME280;39536;52.198;9.920;2023-02-15T00:37:30;102091.50;;;4.26;100.00
13968;BME280;39536;52.198;9.920;2023-02-15T00:39:57;102089.91;;;4.31;100.00
13968;BME280;39536;52.198;9.920;2023-02-15T00:42:23;102097.69;;;4.34;100.00
13968;BME280;39536;52.198;9.920;2023-02-15T00:44:50;102095.22;;;4.42;100.00
13968;BME280;39536;52.198;9.920;2023-02-15T00:47:17;102097.00;;;4.43;100.00
13968;BME280;39536;52.198;9.920;2023-02-15T00:49:43;102099.69;;;4.49;100.00
13968;BME280;39536;52.198;9.920;2023-02-15T00:52:10;102094.44;;;4.45;100.00
13968;BME280;39536;52.198;9.920;2023-02-15T00:54:38;102084.06;;;4.42;100.00
13968;BME280;39536;52.198;9.920;2023-02-15T00:57:05;102082.50;;;4.51;100.00
13968;BME280;39536;52.198;9.920;2023-02-15T00:59:31;102073.09;;;4.53;100.00
13968;BME280;39536;52.198;9.920;2023-02-15T01:01:58;102080.03;;;4.57;100.00
13968;BME280;39536;52.198;9.920;2023-02-15T01:04:24;102076.56;;;4.55;100.00
13968;BME280;39536;52.198;9.920;2023-02-15T01:06:51;102073.94;;;4.54;100.00
13968;BME280;39536;52.198;9.920;2023-02-15T01:09:18;102068.78;;;4.52;100.00
13968;BME280;39536;52.198;9.920;2023-02-15T01:11:46;102062.81;;;4.55;100.00
13968;BME280;39536;52.198;9.920;2023-02-15T01:14:12;102065.41;;;4.56;100.00
13968;BME280;39536;52.198;9.920;2023-02-15T01:16:39;102075.72;;;4.56;100.00
13968;BME280;39536;52.198;9.920;2023-02-15T01:19:06;102066.19;;;4.52;100.00
13968;BME280;39536;52.198;9.920;2023-02-15T01:21:33;102078.28;;;4.56;100.00
13968;BME280;39536;52.198;9.920;2023-02-15T01:24:00;102065.38;;;4.55;100.00
13968;BME280;39536;52.198;9.920;2023-02-15T01:26:27;102069.75;;;4.59;100.00
13968;BME280;39536;52.198;9.920;2023-02-15T01:28:55;102070.72;;;4.66;100.00
13968;BME280;39536;52.198;9.920;2023-02-15T01:31:22;102070.72;;;4.67;100.00
13968;BME280;39536;52.198;9.920;2023-02-15T01:33:49;102075.88;;;4.67;100.00
13968;BME280;39536;52.198;9.920;2023-02-15T01:36:16;102068.09;;;4.64;100.00
13968;BME280;39536;52.198;9.920;2023-02-15T01:38:43;102069.75;;;4.59;100.00
13968;BME280;39536;52.198;9.920;2023-02-15T01:41:09;102072.19;;;4.51;100.00
13968;BME280;39536;52.198;9.920;2023-02-15T01:43:55;102065.19;;;4.43;100.00
13968;BME280;39536;52.198;9.920;2023-02-15T01:46:26;102061.75;;;4.44;100.00
13968;BME280;39536;52.198;9.920;2023-02-15T01:48:56;102066.03;;;4.45;100.00
13968;BME280;39536;52.198;9.920;2023-02-15T01:51:27;102060.88;;;4.45;100.00
13968;BME280;39536;52.198;9.920;2023-02-15T01:53:58;102050.59;;;4.46;100.00
13968;BME280;39536;52.198;9.920;2023-02-15T01:56:30;102048.03;;;4.48;100.00
13968;BME280;39536;52.198;9.920;2023-02-15T01:59:00;102051.47;;;4.48;100.00
13968;BME280;39536;52.198;9.920;2023-02-15T02:01:29;102045.47;;;4.48;100.00
13968;BME280;39536;52.198;9.920;2023-02-15T02:03:59;102044.59;;;4.47;100.00
13968;BME280;39536;52.198;9.920;2023-02-15T02:06:27;102032.41;;;4.37;100.00
13968;BME280;39536;52.198;9.920;2023-02-15T02:08:54;102038.44;;;4.39;100.00
13968;BME280;39536;52.198;9.920;2023-02-15T02:11:21;102032.28;;;4.32;100.00
13968;BME280;39536;52.198;9.920;2023-02-15T02:13:50;102033.06;;;4.27;100.00
13968;BME280;39536;52.198;9.920;2023-02-15T02:16:23;102034.66;;;4.20;100.00
13968;BME280;39536;52.198;9.920;2023-02-15T02:19:05;102030.28;;;4.14;100.00
13968;BME280;39536;52.198;9.920;2023-02-15T02:22:05;102028.22;;;3.97;100.00
13968;BME280;39536;52.198;9.920;2023-02-15T02:27:37;102025.06;;;3.67;100.00
13968;BME280;39536;52.198;9.920;2023-02-15T02:30:31;102022.56;;;3.70;100.00
13968;BME280;39536;52.198;9.920;2023-02-15T02:36:03;102008.06;;;3.74;100.00
13968;BME280;39536;52.198;9.920;2023-02-15T02:38:38;102001.94;;;3.70;100.00
13968;BME280;39536;52.198;9.920;2023-02-15T02:41:14;101997.69;;;3.71;100.00
13968;BME280;39536;52.198;9.920;2023-02-15T02:43:48;101995.06;;;3.68;100.00
13968;BME280;39536;52.198;9.920;2023-02-15T02:46:21;101994.19;;;3.69;100.00
13968;BME280;39536;52.198;9.920;2023-02-15T02:48:49;101996.91;;;3.75;100.00
13968;BME280;39536;52.198;9.920;2023-02-15T02:51:17;101999.44;;;3.74;100.00
13968;BME280;39536;52.198;9.920;2023-02-15T02:53:49;101993.47;;;3.76;100.00
13968;BME280;39536;52.198;9.920;2023-02-15T02:56:21;101985.78;;;3.78;100.00
13968;BME280;39536;52.198;9.920;2023-02-15T02:58:50;101982.41;;;3.82;100.00
13968;BME280;39536;52.198;9.920;2023-02-15T03:01:22;101987.56;;;3.82;100.00
13968;BME280;39536;52.198;9.920;2023-02-15T03:03:55;101982.50;;;3.86;100.00
13968;BME280;39536;52.198;9.920;2023-02-15T03:06:29;101982.53;;;3.88;100.00
13968;BME280;39536;52.198;9.920;2023-02-15T03:09:00;101973.94;;;3.87;100.00
13968;BME280;39536;52.198;9.920;2023-02-15T03:11:29;101972.09;;;3.80;100.00
13968;BME280;39536;52.198;9.920;2023-02-15T03:13:56;101979.03;;;3.84;100.00
13968;BME280;39536;52.198;9.920;2023-02-15T03:16:24;101970.44;;;3.84;100.00
13968;BME280;39536;52.198;9.920;2023-02-15T03:18:56;101967.00;;;3.83;100.00
13968;BME280;39536;52.198;9.920;2023-02-15T03:21:27;101967.00;;;3.83;100.00
13968;BME280;39536;52.198;9.920;2023-02-15T03:24:00;101954.94;;;3.82;100.00
13968;BME280;39536;52.198;9.920;2023-02-15T03:26:29;101955.69;;;3.77;100.00
13968;BME280;39536;52.198;9.920;2023-02-15T03:28:58;101961.72;;;3.77;100.00
13968;BME280;39536;52.198;9.920;2023-02-15T03:31:28;101962.59;;;3.79;100.00
13968;BME280;39536;52.198;9.920;2023-02-15T03:34:00;101959.16;;;3.79;100.00
13968;BME280;39536;52.198;9.920;2023-02-15T03:36:32;101963.53;;;3.83;100.00
13968;BME280;39536;52.198;9.920;2023-02-15T03:39:08;101955.84;;;3.84;100.00
13968;BME280;39536;52.198;9.920;2023-02-15T03:41:40;101956.78;;;3.89;100.00
13968;BME280;39536;52.198;9.920;2023-02-15T03:44:13;101951.69;;;3.92;100.00
13968;BME280;39536;52.198;9.920;2023-02-15T03:46:45;101950.00;;;3.94;100.00
13968;BME280;39536;52.198;9.920;2023-02-15T03:49:19;101945.69;;;3.93;100.00
13968;BME280;39536;52.198;9.920;2023-02-15T03:51:49;101943.97;;;3.92;100.00
13968;BME280;39536;52.198;9.920;2023-02-15T03:54:20;101947.41;;;3.93;100.00
13968;BME280;39536;52.198;9.920;2023-02-15T03:57:02;101957.59;;;3.87;100.00
13968;BME280;39536;52.198;9.920;2023-02-15T03:59:47;101954.97;;;3.84;100.00
13968;BME280;39536;52.198;9.920;2023-02-15T04:02:38;101959.91;;;3.73;100.00
13968;BME280;39536;52.198;9.920;2023-02-15T04:05:07;101963.41;;;3.75;100.00
13968;BME280;39536;52.198;9.920;2023-02-15T04:07:34;101953.72;;;3.62;100.00
13968;BME280;39536;52.198;9.920;2023-02-15T04:10:00;101950.16;;;3.57;100.00
13968;BME280;39536;52.198;9.920;2023-02-15T04:12:44;101957.72;;;3.47;100.00
13968;BME280;39536;52.198;9.920;2023-02-15T04:15:12;101953.72;;;3.18;100.00
13968;BME280;39536;52.198;9.920;2023-02-15T04:17:53;101955.09;;;3.04;100.00
13968;BME280;39536;52.198;9.920;2023-02-15T04:20:21;101956.63;;;2.95;100.00
13968;BME280;39536;52.198;9.920;2023-02-15T04:23:05;101957.28;;;2.85;100.00
13968;BME280;39536;52.198;9.920;2023-02-15T04:25:49;101958.84;;;2.78;100.00
13968;BME280;39536;52.198;9.920;2023-02-15T04:28:16;101957.94;;;2.76;100.00
13968;BME280;39536;52.198;9.920;2023-02-15T04:30:43;101949.09;;;2.64;100.00
13968;BME280;39536;52.198;9.920;2023-02-15T04:33:09;101951.50;;;2.56;100.00
13968;BME280;39536;52.198;9.920;2023-02-15T04:35:38;101937.66;;;2.51;100.00
13968;BME280;39536;52.198;9.920;2023-02-15T04:38:04;101934.44;;;2.61;100.00
13968;BME280;39536;52.198;9.920;2023-02-15T04:40:31;101935.50;;;2.69;100.00
13968;BME280;39536;52.198;9.920;2023-02-15T04:42:57;101935.44;;;2.68;100.00
13968;BME280;39536;52.198;9.920;2023-02-15T04:45:24;101927.88;;;2.74;100.00
13968;BME280;39536;52.198;9.920;2023-02-15T04:47:52;101927.94;;;2.77;100.00
13968;BME280;39536;52.198;9.920;2023-02-15T04:50:18;101923.63;;;2.76;100.00
13968;BME280;39536;52.198;9.920;2023-02-15T04:52:47;101925.28;;;2.72;100.00
13968;BME280;39536;52.198;9.920;2023-02-15T04:55:13;101921.03;;;2.74;100.00
13968;BME280;39536;52.198;9.920;2023-02-15T04:57:40;101927.13;;;2.78;100.00
13968;BME280;39536;52.198;9.920;2023-02-15T05:00:07;101916.81;;;2.78;100.00
13968;BME280;39536;52.198;9.920;2023-02-15T05:02:35;101919.34;;;2.76;100.00
13968;BME280;39536;52.198;9.920;2023-02-15T05:05:01;101925.94;;;2.64;100.00
13968;BME280;39536;52.198;9.920;2023-02-15T05:07:28;101920.69;;;2.59;100.00
13968;BME280;39536;52.198;9.920;2023-02-15T05:09:56;101927.19;;;2.43;100.00
13968;BME280;39536;52.198;9.920;2023-02-15T05:12:22;101920.13;;;2.35;100.00
13968;BME280;39536;52.198;9.920;2023-02-15T05:14:49;101915.72;;;2.30;100.00
13968;BME280;39536;52.198;9.920;2023-02-15T05:17:16;101915.84;;;2.35;100.00
13968;BME280;39536;52.198;9.920;2023-02-15T05:19:42;101919.28;;;2.36;100.00
13968;BME280;39536;52.198;9.920;2023-02-15T05:22:09;101910.72;;;2.37;100.00
13968;BME280;39536;52.198;9.920;2023-02-15T05:24:35;101912.50;;;2.39;100.00
13968;BME280;39536;52.198;9.920;2023-02-15T05:27:21;101908.06;;;2.32;100.00
13968;BME280;39536;52.198;9.920;2023-02-15T05:30:06;101907.22;;;2.33;100.00
13968;BME280;39536;52.198;9.920;2023-02-15T05:32:36;101898.63;;;2.31;100.00
13968;BME280;39536;52.198;9.920;2023-02-15T05:35:04;101903.84;;;2.34;100.00
13968;BME280;39536;52.198;9.920;2023-02-15T05:37:30;101902.94;;;2.32;100.00
13968;BME280;39536;52.198;9.920;2023-02-15T05:39:57;101907.22;;;2.33;100.00
13968;BME280;39536;52.198;9.920;2023-02-15T05:42:25;101902.84;;;2.27;100.00
13968;BME280;39536;52.198;9.920;2023-02-15T05:44:52;101909.72;;;2.30;100.00
13968;BME280;39536;52.198;9.920;2023-02-15T05:47:19;101910.34;;;2.20;100.00
13968;BME280;39536;52.198;9.920;2023-02-15T05:49:46;101908.25;;;2.03;100.00
13968;BME280;39536;52.198;9.920;2023-02-15T05:52:13;101913.00;;;1.88;100.00
13968;BME280;39536;52.198;9.920;2023-02-15T05:54:39;101908.25;;;1.70;100.00
13968;BME280;39536;52.198;9.920;2023-02-15T05:57:06;101917.84;;;1.76;100.00
13968;BME280;39536;52.198;9.920;2023-02-15T05:59:34;101917.03;;;1.78;100.00
13968;BME280;39536;52.198;9.920;2023-02-15T06:02:01;101918.34;;;1.63;100.00
13968;BME280;39536;52.198;9.920;2023-02-15T06:04:27;101912.38;;;1.64;100.00
13968;BME280;39536;52.198;9.920;2023-02-15T06:06:54;101909.81;;;1.64;100.00
13968;BME280;39536;52.198;9.920;2023-02-15T06:09:21;101910.81;;;1.69;100.00
13968;BME280;39536;52.198;9.920;2023-02-15T06:11:47;101903.34;;;1.78;100.00
13968;BME280;39536;52.198;9.920;2023-02-15T06:14:14;101908.41;;;1.75;100.00
13968;BME280;39536;52.198;9.920;2023-02-15T06:16:42;101904.19;;;1.78;100.00
13968;BME280;39536;52.198;9.920;2023-02-15T06:19:09;101902.72;;;1.88;100.00
13968;BME280;39536;52.198;9.920;2023-02-15T06:21:36;101898.44;;;1.87;100.00
13968;BME280;39536;52.198;9.920;2023-02-15T06:24:02;101897.75;;;1.94;100.00
13968;BME280;39536;52.198;9.920;2023-02-15T06:26:29;101893.63;;;2.01;100.00
13968;BME280;39536;52.198;9.920;2023-02-15T06:28:56;101891.84;;;1.98;100.00
13968;BME280;39536;52.198;9.920;2023-02-15T06:31:23;101886.75;;;2.00;100.00
13968;BME280;39536;52.198;9.920;2023-02-15T06:33:51;101900.63;;;2.06;100.00
13968;BME280;39536;52.198;9.920;2023-02-15T06:36:17;101901.56;;;2.12;100.00
13968;BME280;39536;52.198;9.920;2023-02-15T06:38:44;101895.78;;;2.19;100.00
13968;BME280;39536;52.198;9.920;2023-02-15T06:41:10;101894.13;;;2.22;100.00
13968;BME280;39536;52.198;9.920;2023-02-15T06:43:37;101896.41;;;2.10;100.00
13968;BME280;39536;52.198;9.920;2023-02-15T06:46:04;101896.34;;;2.08;100.00
13968;BME280;39536;52.198;9.920;2023-02-15T06:48:30;101904.06;;;2.07;100.00
13968;BME280;39536;52.198;9.920;2023-02-15T06:50:58;101901.28;;;1.99;100.00
13968;BME280;39536;52.198;9.920;2023-02-15T06:53:25;101900.63;;;1.72;100.00
13968;BME280;39536;52.198;9.920;2023-02-15T06:55:52;101900.84;;;1.49;100.00
13968;BME280;39536;52.198;9.920;2023-02-15T06:58:18;101899.41;;;1.27;100.00
13968;BME280;39536;52.198;9.920;2023-02-15T07:00:45;101895.81;;;1.21;100.00
13968;BME280;39536;52.198;9.920;2023-02-15T07:03:15;101894.16;;;1.23;100.00
13968;BME280;39536;52.198;9.920;2023-02-15T07:05:41;101892.81;;;1.37;100.00
13968;BME280;39536;52.198;9.920;2023-02-15T07:08:14;101883.94;;;1.56;100.00
13968;BME280;39536;52.198;9.920;2023-02-15T07:10:43;101884.13;;;1.64;100.00
13968;BME280;39536;52.198;9.920;2023-02-15T07:13:10;101879.91;;;1.66;100.00
13968;BME280;39536;52.198;9.920;2023-02-15T07:15:36;101874.09;;;1.73;100.00
13968;BME280;39536;52.198;9.920;2023-02-15T07:18:02;101882.03;;;1.82;100.00
13968;BME280;39536;52.198;9.920;2023-02-15T07:20:30;101889.72;;;1.82;100.00
13968;BME280;39536;52.198;9.920;2023-02-15T07:23:00;101887.09;;;1.79;100.00
13968;BME280;39536;52.198;9.920;2023-02-15T07:25:28;101885.28;;;1.75;100.00
13968;BME280;39536;52.198;9.920;2023-02-15T07:27:56;101878.63;;;1.83;100.00
13968;BME280;39536;52.198;9.920;2023-02-15T07:30:26;101873.31;;;1.77;100.00
13968;BME280;39536;52.198;9.920;2023-02-15T07:32:55;101874.78;;;1.66;100.00
13968;BME280;39536;52.198;9.920;2023-02-15T07:35:46;101874.63;;;1.61;100.00
13968;BME280;39536;52.198;9.920;2023-02-15T07:38:12;101883.94;;;1.56;100.00
13968;BME280;39536;52.198;9.920;2023-02-15T07:40:40;101887.13;;;1.47;100.00
13968;BME280;39536;52.198;9.920;2023-02-15T07:43:07;101890.22;;;1.35;100.00
13968;BME280;39536;52.198;9.920;2023-02-15T07:45:33;101889.97;;;1.26;100.00
13968;BME280;39536;52.198;9.920;2023-02-15T07:48:00;101898.28;;;1.18;100.00
13968;BME280;39536;52.198;9.920;2023-02-15T07:50:26;101897.06;;;1.03;100.00
13968;BME280;39536;52.198;9.920;2023-02-15T07:52:53;101901.53;;;1.12;100.00
13968;BME280;39536;52.198;9.920;2023-02-15T07:55:19;101904.19;;;1.15;100.00
13968;BME280;39536;52.198;9.920;2023-02-15T07:57:49;101911.03;;;1.14;100.00
13968;BME280;39536;52.198;9.920;2023-02-15T08:00:17;101909.66;;;1.26;100.00
13968;BME280;39536;52.198;9.920;2023-02-15T08:02:47;101896.91;;;1.29;100.00
13968;BME280;39536;52.198;9.920;2023-02-15T08:05:34;101903.34;;;1.46;100.00
13968;BME280;39536;52.198;9.920;2023-02-15T08:08:01;101899.81;;;1.41;100.00
13968;BME280;39536;52.198;9.920;2023-02-15T08:10:28;101912.81;;;1.49;100.00
13968;BME280;39536;52.198;9.920;2023-02-15T08:13:09;101902.88;;;1.61;100.00
13968;BME280;39536;52.198;9.920;2023-02-15T08:15:36;101892.47;;;1.90;100.00
13968;BME280;39536;52.198;9.920;2023-02-15T08:18:02;101902.41;;;2.11;100.00
13968;BME280;39536;52.198;9.920;2023-02-15T08:20:29;101894.84;;;2.15;100.00
13968;BME280;39536;52.198;9.920;2023-02-15T08:22:55;101882.50;;;2.38;100.00
13968;BME280;39536;52.198;9.920;2023-02-15T08:25:22;101876.03;;;2.56;100.00
13968;BME280;39536;52.198;9.920;2023-02-15T08:27:49;101873.72;;;2.68;100.00
13968;BME280;39536;52.198;9.920;2023-02-15T08:30:17;101873.16;;;2.83;100.00
13968;BME280;39536;52.198;9.920;2023-02-15T08:32:43;101867.41;;;2.94;100.00
13968;BME280;39536;52.198;9.920;2023-02-15T08:35:10;101863.41;;;3.09;100.00
13968;BME280;39536;52.198;9.920;2023-02-15T08:37:36;101857.72;;;3.25;100.00
13968;BME280;39536;52.198;9.920;2023-02-15T08:40:03;101854.56;;;3.40;100.00
13968;BME280;39536;52.198;9.920;2023-02-15T08:42:32;101859.16;;;3.58;100.00
13968;BME280;39536;52.198;9.920;2023-02-15T08:44:58;101851.56;;;3.65;100.00
13968;BME280;39536;52.198;9.920;2023-02-15T08:47:27;101833.59;;;3.68;100.00
13968;BME280;39536;52.198;9.920;2023-02-15T08:49:53;101831.97;;;3.77;100.00
13968;BME280;39536;52.198;9.920;2023-02-15T08:52:21;101828.78;;;3.91;100.00
13968;BME280;39536;52.198;9.920;2023-02-15T08:54:47;101819.66;;;4.12;100.00
13968;BME280;39536;52.198;9.920;2023-02-15T08:57:13;101829.25;;;4.22;100.00
13968;BME280;39536;52.198;9.920;2023-02-15T08:59:40;101828.66;;;4.42;100.00
13968;BME280;39536;52.198;9.920;2023-02-15T09:02:09;101822.88;;;4.59;100.00
13968;BME280;39536;52.198;9.920;2023-02-15T09:04:37;101823.03;;;4.73;100.00
13968;BME280;39536;52.198;9.920;2023-02-15T09:07:04;101816.28;;;4.84;100.00
13968;BME280;39536;52.198;9.920;2023-02-15T09:09:30;101822.47;;;4.96;100.00
13968;BME280;39536;52.198;9.920;2023-02-15T09:11:57;101822.59;;;5.08;100.00
13968;BME280;39536;52.198;9.920;2023-02-15T09:14:24;101821.91;;;5.24;100.00
13968;BME280;39536;52.198;9.920;2023-02-15T09:16:52;101821.16;;;5.38;100.00
13968;BME280;39536;52.198;9.920;2023-02-15T09:19:20;101812.63;;;5.46;100.00
13968;BME280;39536;52.198;9.920;2023-02-15T09:21:48;101821.31;;;5.53;100.00
13968;BME280;39536;52.198;9.920;2023-02-15T09:24:16;101817.09;;;5.64;100.00
13968;BME280;39536;52.198;9.920;2023-02-15T09:26:44;101825.81;;;5.74;100.00
13968;BME280;39536;52.198;9.920;2023-02-15T09:29:13;101821.56;;;5.84;100.00
13968;BME280;39536;52.198;9.920;2023-02-15T09:31:41;101822.47;;;5.92;100.00
13968;BME280;39536;52.198;9.920;2023-02-15T09:34:09;101813.09;;;5.98;100.00
13968;BME280;39536;52.198;9.920;2023-02-15T09:36:37;101805.38;;;6.09;100.00
13968;BME280;39536;52.198;9.920;2023-02-15T09:39:08;101816.69;;;6.20;100.00
13968;BME280;39536;52.198;9.920;2023-02-15T09:42:04;101814.13;;;6.28;100.00
13968;BME280;39536;52.198;9.920;2023-02-15T09:44:42;101809.88;;;6.44;100.00
13968;BME280;39536;52.198;9.920;2023-02-15T09:47:20;101809.09;;;6.57;100.00
13968;BME280;39536;52.198;9.920;2023-02-15T09:49:57;101816.91;;;6.68;100.00
13968;BME280;39536;52.198;9.920;2023-02-15T09:52:46;101819.53;;;6.79;100.00
13968;BME280;39536;52.198;9.920;2023-02-15T09:55:27;101816.94;;;6.76;100.00
13968;BME280;39536;52.198;9.920;2023-02-15T09:58:05;101810.91;;;6.74;100.00
13968;BME280;39536;52.198;9.920;2023-02-15T10:00:40;101803.16;;;6.83;100.00
13968;BME280;39536;52.198;9.920;2023-02-15T10:03:27;101804.91;;;6.91;100.00
13968;BME280;39536;52.198;9.920;2023-02-15T10:06:10;101805.81;;;7.04;100.00
13968;BME280;39536;52.198;9.920;2023-02-15T10:08:56;101804.09;;;7.05;100.00
13968;BME280;39536;52.198;9.920;2023-02-15T10:11:34;101799.78;;;7.14;100.00
13968;BME280;39536;52.198;9.920;2023-02-15T10:14:14;101795.47;;;7.23;100.00
13968;BME280;39536;52.198;9.920;2023-02-15T10:16:52;101789.44;;;7.30;100.00
13968;BME280;39536;52.198;9.920;2023-02-15T10:19:30;101792.91;;;7.30;100.00
13968;BME280;39536;52.198;9.920;2023-02-15T10:22:10;101794.63;;;7.47;100.00
13968;BME280;39536;52.198;9.920;2023-02-15T10:24:54;101782.53;;;7.69;100.00
13968;BME280;39536;52.198;9.920;2023-02-15T10:27:29;101791.16;;;7.84;100.00
13968;BME280;39536;52.198;9.920;2023-02-15T10:30:03;101796.34;;;8.04;100.00
13968;BME280;39536;52.198;9.920;2023-02-15T10:32:39;101794.59;;;7.97;100.00
13968;BME280;39536;52.198;9.920;2023-02-15T10:35:15;101795.47;;;7.90;100.00
13968;BME280;39536;52.198;9.920;2023-02-15T10:38:00;101793.78;;;7.80;100.00
13968;BME280;39536;52.198;9.920;2023-02-15T10:40:34;101786.88;;;7.76;100.00
13968;BME280;39536;52.198;9.920;2023-02-15T10:43:17;101786.84;;;7.77;100.00
13968;BME280;39536;52.198;9.920;2023-02-15T10:45:53;101782.53;;;7.75;100.00
13968;BME280;39536;52.198;9.920;2023-02-15T10:48:50;101784.25;;;7.77;100.00
13968;BME280;39536;52.198;9.920;2023-02-15T10:51:30;101789.47;;;7.73;100.00
13968;BME280;39536;52.198;9.920;2023-02-15T10:54:09;101779.94;;;7.72;100.00
13968;BME280;39536;52.198;9.920;2023-02-15T10:56:46;101778.19;;;7.83;100.00
13968;BME280;39536;52.198;9.920;2023-02-15T10:59:40;101775.59;;;7.95;100.00
13968;BME280;39536;52.198;9.920;2023-02-15T11:02:16;101777.28;;;8.08;100.00
13968;BME280;39536;52.198;9.920;2023-02-15T11:04:56;101782.41;;;8.48;100.00
13968;BME280;39536;52.198;9.920;2023-02-15T11:07:27;101779.78;;;8.51;100.00
13968;BME280;39536;52.198;9.920;2023-02-15T11:10:00;101779.78;;;8.54;100.00
13968;BME280;39536;52.198;9.920;2023-02-15T11:12:29;101778.94;;;8.46;100.00
13968;BME280;39536;52.198;9.920;2023-02-15T11:15:04;101777.16;;;8.58;100.00
13968;BME280;39536;52.198;9.920;2023-02-15T11:17:40;101771.81;;;8.87;100.00
13968;BME280;39536;52.198;9.920;2023-02-15T11:20:17;101775.34;;;8.76;100.00
13968;BME280;39536;52.198;9.920;2023-02-15T11:22:47;101775.41;;;8.56;100.00
13968;BME280;39536;52.198;9.920;2023-02-15T11:25:18;101769.41;;;8.31;100.00
13968;BME280;39536;52.198;9.920;2023-02-15T11:27:46;101774.63;;;8.39;100.00
13968;BME280;39536;52.198;9.920;2023-02-15T11:30:20;101772.03;;;8.25;100.00
13968;BME280;39536;52.198;9.920;2023-02-15T11:32:49;101761.69;;;8.19;100.00
13968;BME280;39536;52.198;9.920;2023-02-15T11:35:20;101755.63;;;8.23;100.00
13968;BME280;39536;52.198;9.920;2023-02-15T11:37:51;101751.28;;;8.39;100.00
13968;BME280;39536;52.198;9.920;2023-02-15T11:40:22;101752.00;;;8.66;100.00
13968;BME280;39536;52.198;9.920;2023-02-15T11:42:51;101744.97;;;8.89;100.00
13968;BME280;39536;52.198;9.920;2023-02-15T11:45:26;101742.19;;;9.17;100.00
13968;BME280;39536;52.198;9.920;2023-02-15T11:47:53;101744.72;;;9.23;100.00
13968;BME280;39536;52.198;9.920;2023-02-15T11:50:23;101742.06;;;9.32;100.00
13968;BME280;39536;52.198;9.920;2023-02-15T11:52:52;101747.22;;;9.38;100.00
13968;BME280;39536;52.198;9.920;2023-02-15T11:55:21;101734.94;;;9.53;100.00
13968;BME280;39536;52.198;9.920;2023-02-15T11:57:52;101736.63;;;9.60;100.00
13968;BME280;39536;52.198;9.920;2023-02-15T12:00:27;101732.41;;;9.45;100.00
13968;BME280;39536;52.198;9.920;2023-02-15T12:03:03;101732.31;;;9.56;100.00
13968;BME280;39536;52.198;9.920;2023-02-15T12:05:32;101732.31;;;9.56;100.00
13968;BME280;39536;52.198;9.920;2023-02-15T12:08:03;101727.06;;;9.60;100.00
13968;BME280;39536;52.198;9.920;2023-02-15T12:10:40;101732.16;;;9.73;100.00
13968;BME280;39536;52.198;9.920;2023-02-15T12:13:11;101726.94;;;9.76;100.00
13968;BME280;39536;52.198;9.920;2023-02-15T12:15:41;101727.88;;;9.65;100.00
13968;BME280;39536;52.198;9.920;2023-02-15T12:18:18;101724.25;;;9.80;100.00
13968;BME280;39536;52.198;9.920;2023-02-15T12:20:46;101718.00;;;9.98;100.00
13968;BME280;39536;52.198;9.920;2023-02-15T12:23:14;101723.13;;;10.06;100.00
13968;BME280;39536;52.198;9.920;2023-02-15T12:25:42;101711.91;;;10.01;100.00
13968;BME280;39536;52.198;9.920;2023-02-15T12:28:23;101718.47;;;10.35;100.00
13968;BME280;39536;52.198;9.920;2023-02-15T12:30:52;101710.28;;;9.90;100.00
13968;BME280;39536;52.198;9.920;2023-02-15T12:33:26;101712.00;;;9.90;100.00
13968;BME280;39536;52.198;9.920;2023-02-15T12:35:57;101714.44;;;10.05;100.00
13968;BME280;39536;52.198;9.920;2023-02-15T12:38:25;101716.78;;;10.31;100.00
13968;BME280;39536;52.198;9.920;2023-02-15T12:41:01;101715.88;;;10.35;100.00
13968;BME280;39536;52.198;9.920;2023-02-15T12:43:31;101705.59;;;10.18;100.00
13968;BME280;39536;52.198;9.920;2023-02-15T12:46:21;101705.75;;;10.09;100.00
13968;BME280;39536;52.198;9.920;2023-02-15T12:49:05;101698.41;;;10.44;100.00
13968;BME280;39536;52.198;9.920;2023-02-15T12:51:43;101696.00;;;10.25;100.00
13968;BME280;39536;52.198;9.920;2023-02-15T12:54:34;101696.88;;;10.26;100.00
13968;BME280;39536;52.198;9.920;2023-02-15T12:57:15;101691.19;;;10.62;100.00
13968;BME280;39536;52.198;9.920;2023-02-15T12:59:49;101697.22;;;10.66;100.00
13968;BME280;39536;52.198;9.920;2023-02-15T13:02:21;101705.28;;;10.48;100.00
13968;BME280;39536;52.198;9.920;2023-02-15T13:04:49;101702.66;;;10.51;100.00
13968;BME280;39536;52.198;9.920;2023-02-15T13:07:17;101700.28;;;10.32;100.00
13968;BME280;39536;52.198;9.920;2023-02-15T13:09:44;101683.69;;;10.39;100.00
13968;BME280;39536;52.198;9.920;2023-02-15T13:12:16;101681.75;;;10.54;100.00
13968;BME280;39536;52.198;9.920;2023-02-15T13:14:45;101680.25;;;10.36;100.00